Portada
METAR-TAF:

METAR-TAF

Aeropuertos :

Aeropuerto de Yellowknife

Yellowknife, Territorios del Noroeste, Canadá

latitud: 62-28N, longitud: 114-27W, altitud: 205 m

Observación

El informe se hizo hace 13 minutos, a las 06:00 UTC
Viento 4 kt del norte-noroeste
Temperatura -35°C
Humedad 66%
Presión 1034 hPa
Visibilidad: 24.1 km
Cielo despejado

METAR: CYZF 160600Z 34004KT 15SM SKC M35/M39 A3053 RMK SLP377

Hora: 23:13 (06:13 UTC)

Pronóstico

El informe se hizo hace 32 minutos, a las 05:41 UTC
Pronóstico válido del 16 a las 06 UTC al 17 a las 06 UTC
Viento 5 kt del norte-noroeste
Visibilidad: 10 km
Cielo despejado
Probabilidad 30%
del 16 a las 12 UTC al 16 a las 16 UTC
Visibilidad: 0.4 km
a una altura de 200 ft
cristales de hielo, niebla

TAF: CYZF 160541Z 1606/1706 34005KT P6SM SKC PROB30 1612/1616 1/4SM IC FG VV002 RMK NXT FCST BY 161200Z

Observaciones y pronósticos meteorológicos de más de 4000 aeropuertos (mensajes METAR y TAF).

Los puntos amarillos y rojos representan las estaciones disponibles.

Ponga el ratón en el punto deseado para ver el nombre de la estación.

Haga clic para ver las observaciones y los pronósticos meteorológicos.

Para cambiar el mapa : haga clic en los botones verdes con una cruz de color negro para hacer un zoom, en el botón verde con un guión para alejar o en las flechas verdes para mapas adyacentes.


METAR-TAF: